sensor_id;sensor_type;location;lat;lon;timestamp;temperature;humidity
70170;DHT22;57543;45.442;9.212;2023-12-14T00:00:01;8.80;90.25
70170;DHT22;57543;45.442;9.212;2023-12-14T00:03:09;8.86;90.26
70170;DHT22;57543;45.442;9.212;2023-12-14T00:06:13;8.87;90.20
70170;DHT22;57543;45.442;9.212;2023-12-14T00:09:16;8.93;90.10
70170;DHT22;57543;45.442;9.212;2023-12-14T00:12:20;8.99;90.08
70170;DHT22;57543;45.442;9.212;2023-12-14T00:15:24;9.01;90.06
70170;DHT22;57543;45.442;9.212;2023-12-14T00:18:27;9.00;89.98
70170;DHT22;57543;45.442;9.212;2023-12-14T00:21:31;9.03;89.99
70170;DHT22;57543;45.442;9.212;2023-12-14T00:24:35;9.00;89.89
70170;DHT22;57543;45.442;9.212;2023-12-14T00:27:38;9.04;89.96
70170;DHT22;57543;45.442;9.212;2023-12-14T00:30:42;9.08;89.82
70170;DHT22;57543;45.442;9.212;2023-12-14T00:33:46;9.08;89.77
70170;DHT22;57543;45.442;9.212;2023-12-14T00:36:49;9.06;89.73
70170;DHT22;57543;45.442;9.212;2023-12-14T00:39:53;9.06;89.70
70170;DHT22;57543;45.442;9.212;2023-12-14T00:42:58;9.00;89.68
70170;DHT22;57543;45.442;9.212;2023-12-14T00:46:02;8.96;89.90
70170;DHT22;57543;45.442;9.212;2023-12-14T00:49:06;8.93;89.93
70170;DHT22;57543;45.442;9.212;2023-12-14T00:52:10;8.96;89.93
70170;DHT22;57543;45.442;9.212;2023-12-14T00:55:13;9.01;89.85
70170;DHT22;57543;45.442;9.212;2023-12-14T00:58:16;9.03;89.72
70170;DHT22;57543;45.442;9.212;2023-12-14T01:01:20;8.97;89.71
70170;DHT22;57543;45.442;9.212;2023-12-14T01:04:24;8.86;90.11
70170;DHT22;57543;45.442;9.212;2023-12-14T01:07:27;8.89;90.06
70170;DHT22;57543;45.442;9.212;2023-12-14T01:10:30;8.91;89.99
70170;DHT22;57543;45.442;9.212;2023-12-14T01:13:34;8.96;89.88
70170;DHT22;57543;45.442;9.212;2023-12-14T01:16:38;8.90;89.93
70170;DHT22;57543;45.442;9.212;2023-12-14T01:19:42;8.90;90.06
70170;DHT22;57543;45.442;9.212;2023-12-14T01:22:45;8.90;90.07
70170;DHT22;57543;45.442;9.212;2023-12-14T01:25:51;8.91;90.02
70170;DHT22;57543;45.442;9.212;2023-12-14T01:28:54;8.91;89.98
70170;DHT22;57543;45.442;9.212;2023-12-14T01:31:59;8.97;89.85
70170;DHT22;57543;45.442;9.212;2023-12-14T01:35:02;8.99;89.62
70170;DHT22;57543;45.442;9.212;2023-12-14T01:38:06;8.97;89.64
70170;DHT22;57543;45.442;9.212;2023-12-14T01:41:09;8.93;89.59
70170;DHT22;57543;45.442;9.212;2023-12-14T01:44:13;8.89;89.68
70170;DHT22;57543;45.442;9.212;2023-12-14T01:47:16;8.87;89.74
70170;DHT22;57543;45.442;9.212;2023-12-14T01:50:23;8.76;90.04
70170;DHT22;57543;45.442;9.212;2023-12-14T01:53:27;8.76;90.02
70170;DHT22;57543;45.442;9.212;2023-12-14T01:56:32;8.70;90.02
70170;DHT22;57543;45.442;9.212;2023-12-14T01:59:36;8.76;89.96
70170;DHT22;57543;45.442;9.212;2023-12-14T02:02:39;8.77;89.91
70170;DHT22;57543;45.442;9.212;2023-12-14T02:05:44;8.73;89.90
70170;DHT22;57543;45.442;9.212;2023-12-14T02:08:47;8.68;89.93
70170;DHT22;57543;45.442;9.212;2023-12-14T02:11:51;8.66;89.98
70170;DHT22;57543;45.442;9.212;2023-12-14T02:14:56;8.63;89.99
70170;DHT22;57543;45.442;9.212;2023-12-14T02:18:00;8.68;89.82
70170;DHT22;57543;45.442;9.212;2023-12-14T02:21:03;8.66;89.83
70170;DHT22;57543;45.442;9.212;2023-12-14T02:24:07;8.66;89.77
70170;DHT22;57543;45.442;9.212;2023-12-14T02:27:11;8.62;89.84
70170;DHT22;57543;45.442;9.212;2023-12-14T02:30:15;8.46;89.93
70170;DHT22;57543;45.442;9.212;2023-12-14T02:33:19;8.34;90.20
70170;DHT22;57543;45.442;9.212;2023-12-14T02:36:22;8.10;91.11
70170;DHT22;57543;45.442;9.212;2023-12-14T02:39:26;8.08;91.04
70170;DHT22;57543;45.442;9.212;2023-12-14T02:42:29;8.10;91.22
70170;DHT22;57543;45.442;9.212;2023-12-14T02:45:33;8.10;91.17
70170;DHT22;57543;45.442;9.212;2023-12-14T02:48:37;8.07;91.39
70170;DHT22;57543;45.442;9.212;2023-12-14T02:51:40;8.14;91.28
70170;DHT22;57543;45.442;9.212;2023-12-14T02:54:44;8.21;91.08
70170;DHT22;57543;45.442;9.212;2023-12-14T02:57:47;8.21;91.23
70170;DHT22;57543;45.442;9.212;2023-12-14T03:00:50;8.28;91.13
70170;DHT22;57543;45.442;9.212;2023-12-14T03:03:54;8.37;90.93
70170;DHT22;57543;45.442;9.212;2023-12-14T03:06:58;8.25;91.49
70170;DHT22;57543;45.442;9.212;2023-12-14T03:10:06;8.30;91.21
70170;DHT22;57543;45.442;9.212;2023-12-14T03:13:10;8.41;91.15
70170;DHT22;57543;45.442;9.212;2023-12-14T03:16:13;8.45;91.07
70170;DHT22;57543;45.442;9.212;2023-12-14T03:19:16;8.46;91.03
70170;DHT22;57543;45.442;9.212;2023-12-14T03:22:19;8.51;90.81
70170;DHT22;57543;45.442;9.212;2023-12-14T03:25:23;8.48;90.87
70170;DHT22;57543;45.442;9.212;2023-12-14T03:28:27;8.37;91.31
70170;DHT22;57543;45.442;9.212;2023-12-14T03:31:30;8.42;91.33
70170;DHT22;57543;45.442;9.212;2023-12-14T03:34:34;8.45;91.27
70170;DHT22;57543;45.442;9.212;2023-12-14T03:37:37;8.46;91.24
70170;DHT22;57543;45.442;9.212;2023-12-14T03:40:43;8.55;91.11
70170;DHT22;57543;45.442;9.212;2023-12-14T03:43:46;8.44;91.38
70170;DHT22;57543;45.442;9.212;2023-12-14T03:46:53;8.51;90.87
70170;DHT22;57543;45.442;9.212;2023-12-14T03:49:57;8.42;91.43
70170;DHT22;57543;45.442;9.212;2023-12-14T03:53:01;8.40;91.53
70170;DHT22;57543;45.442;9.212;2023-12-14T03:56:05;8.46;91.33
70170;DHT22;57543;45.442;9.212;2023-12-14T03:59:09;8.45;91.32
70170;DHT22;57543;45.442;9.212;2023-12-14T04:02:12;8.55;90.91
70170;DHT22;57543;45.442;9.212;2023-12-14T04:05:16;8.59;90.86
70170;DHT22;57543;45.442;9.212;2023-12-14T04:08:23;8.51;91.02
70170;DHT22;57543;45.442;9.212;2023-12-14T04:11:28;8.42;91.47
70170;DHT22;57543;45.442;9.212;2023-12-14T04:14:34;8.25;92.09
70170;DHT22;57543;45.442;9.212;2023-12-14T04:17:40;8.23;92.06
70170;DHT22;57543;45.442;9.212;2023-12-14T04:20:46;8.35;91.73
70170;DHT22;57543;45.442;9.212;2023-12-14T04:23:49;8.48;91.49
70170;DHT22;57543;45.442;9.212;2023-12-14T04:26:54;8.48;91.40
70170;DHT22;57543;45.442;9.212;2023-12-14T04:29:59;8.38;91.68
70170;DHT22;57543;45.442;9.212;2023-12-14T04:33:05;8.44;91.52
70170;DHT22;57543;45.442;9.212;2023-12-14T04:36:09;8.45;91.48
70170;DHT22;57543;45.442;9.212;2023-12-14T04:39:13;8.27;91.97
70170;DHT22;57543;45.442;9.212;2023-12-14T04:42:17;8.34;91.85
70170;DHT22;57543;45.442;9.212;2023-12-14T04:45:21;8.46;91.70
70170;DHT22;57543;45.442;9.212;2023-12-14T04:48:25;8.45;91.53
70170;DHT22;57543;45.442;9.212;2023-12-14T04:51:31;8.51;91.43
70170;DHT22;57543;45.442;9.212;2023-12-14T04:54:35;8.52;91.41
70170;DHT22;57543;45.442;9.212;2023-12-14T04:57:41;8.58;91.29
70170;DHT22;57543;45.442;9.212;2023-12-14T05:00:44;8.58;91.25
70170;DHT22;57543;45.442;9.212;2023-12-14T05:03:48;8.62;91.16
70170;DHT22;57543;45.442;9.212;2023-12-14T05:06:51;8.58;91.30
70170;DHT22;57543;45.442;9.212;2023-12-14T05:09:55;8.49;91.56
70170;DHT22;57543;45.442;9.212;2023-12-14T05:12:59;8.62;91.37
70170;DHT22;57543;45.442;9.212;2023-12-14T05:16:03;8.63;91.22
70170;DHT22;57543;45.442;9.212;2023-12-14T05:19:07;8.70;91.13
70170;DHT22;57543;45.442;9.212;2023-12-14T05:22:10;8.68;91.07
70170;DHT22;57543;45.442;9.212;2023-12-14T05:25:14;8.72;91.13
70170;DHT22;57543;45.442;9.212;2023-12-14T05:28:18;8.75;91.12
70170;DHT22;57543;45.442;9.212;2023-12-14T05:31:21;8.80;91.01
70170;DHT22;57543;45.442;9.212;2023-12-14T05:34:25;8.72;91.04
70170;DHT22;57543;45.442;9.212;2023-12-14T05:37:28;8.62;91.20
70170;DHT22;57543;45.442;9.212;2023-12-14T05:40:32;8.66;91.33
70170;DHT22;57543;45.442;9.212;2023-12-14T05:43:36;8.75;91.14
70170;DHT22;57543;45.442;9.212;2023-12-14T05:46:40;8.76;91.12
70170;DHT22;57543;45.442;9.212;2023-12-14T05:49:44;8.75;91.07
70170;DHT22;57543;45.442;9.212;2023-12-14T05:52:47;8.75;91.13
70170;DHT22;57543;45.442;9.212;2023-12-14T05:55:51;8.75;91.17
70170;DHT22;57543;45.442;9.212;2023-12-14T05:58:55;8.76;91.08
70170;DHT22;57543;45.442;9.212;2023-12-14T06:02:00;8.76;91.04
70170;DHT22;57543;45.442;9.212;2023-12-14T06:05:05;8.79;90.90
70170;DHT22;57543;45.442;9.212;2023-12-14T06:08:10;8.81;90.97
70170;DHT22;57543;45.442;9.212;2023-12-14T06:11:13;8.81;90.85
70170;DHT22;57543;45.442;9.212;2023-12-14T06:14:16;8.86;90.66
70170;DHT22;57543;45.442;9.212;2023-12-14T06:17:20;8.86;90.58
70170;DHT22;57543;45.442;9.212;2023-12-14T06:20:24;8.90;90.38
70170;DHT22;57543;45.442;9.212;2023-12-14T06:23:28;8.90;90.22
70170;DHT22;57543;45.442;9.212;2023-12-14T06:26:31;8.93;90.11
70170;DHT22;57543;45.442;9.212;2023-12-14T06:29:34;8.87;90.01
70170;DHT22;57543;45.442;9.212;2023-12-14T06:32:40;8.80;89.92
70170;DHT22;57543;45.442;9.212;2023-12-14T06:35:47;8.84;89.83
70170;DHT22;57543;45.442;9.212;2023-12-14T06:38:51;8.83;89.74
70170;DHT22;57543;45.442;9.212;2023-12-14T06:41:55;8.81;89.64
70170;DHT22;57543;45.442;9.212;2023-12-14T06:45:00;8.84;89.63
70170;DHT22;57543;45.442;9.212;2023-12-14T06:48:04;8.86;89.38
70170;DHT22;57543;45.442;9.212;2023-12-14T06:51:08;8.83;89.51
70170;DHT22;57543;45.442;9.212;2023-12-14T06:54:11;8.89;89.36
70170;DHT22;57543;45.442;9.212;2023-12-14T06:57:14;8.83;89.36
70170;DHT22;57543;45.442;9.212;2023-12-14T07:00:18;8.86;89.29
70170;DHT22;57543;45.442;9.212;2023-12-14T07:03:22;8.75;89.48
70170;DHT22;57543;45.442;9.212;2023-12-14T07:06:28;8.73;89.55
70170;DHT22;57543;45.442;9.212;2023-12-14T07:09:31;8.75;89.54
70170;DHT22;57543;45.442;9.212;2023-12-14T07:12:35;8.79;89.39
70170;DHT22;57543;45.442;9.212;2023-12-14T07:15:39;8.83;89.35
70170;DHT22;57543;45.442;9.212;2023-12-14T07:18:43;8.76;89.48
70170;DHT22;57543;45.442;9.212;2023-12-14T07:21:46;8.80;89.48
70170;DHT22;57543;45.442;9.212;2023-12-14T07:24:50;8.83;89.38
70170;DHT22;57543;45.442;9.212;2023-12-14T07:27:53;8.73;89.41
70170;DHT22;57543;45.442;9.212;2023-12-14T07:30:57;8.79;89.37
70170;DHT22;57543;45.442;9.212;2023-12-14T07:34:01;8.77;89.23
70170;DHT22;57543;45.442;9.212;2023-12-14T07:37:05;8.68;89.19
70170;DHT22;57543;45.442;9.212;2023-12-14T07:40:09;8.72;89.14
70170;DHT22;57543;45.442;9.212;2023-12-14T07:43:13;8.31;89.43
70170;DHT22;57543;45.442;9.212;2023-12-14T07:46:16;8.44;89.34
70170;DHT22;57543;45.442;9.212;2023-12-14T07:49:21;8.45;89.33
70170;DHT22;57543;45.442;9.212;2023-12-14T07:52:29;8.48;89.10
70170;DHT22;57543;45.442;9.212;2023-12-14T07:55:32;8.49;89.17
70170;DHT22;57543;45.442;9.212;2023-12-14T07:58:37;8.44;89.29
70170;DHT22;57543;45.442;9.212;2023-12-14T08:01:41;8.51;89.26
70170;DHT22;57543;45.442;9.212;2023-12-14T08:04:45;8.61;89.12
70170;DHT22;57543;45.442;9.212;2023-12-14T08:07:48;8.68;89.04
70170;DHT22;57543;45.442;9.212;2023-12-14T08:10:55;8.70;88.90
70170;DHT22;57543;45.442;9.212;2023-12-14T08:13:59;8.76;88.74
70170;DHT22;57543;45.442;9.212;2023-12-14T08:17:03;8.79;88.62
70170;DHT22;57543;45.442;9.212;2023-12-14T08:20:07;8.76;88.47
70170;DHT22;57543;45.442;9.212;2023-12-14T08:23:12;8.76;88.23
70170;DHT22;57543;45.442;9.212;2023-12-14T08:26:16;8.70;88.18
70170;DHT22;57543;45.442;9.212;2023-12-14T08:29:19;8.68;88.37
70170;DHT22;57543;45.442;9.212;2023-12-14T08:32:22;8.72;88.25
70170;DHT22;57543;45.442;9.212;2023-12-14T08:35:26;8.72;88.11
70170;DHT22;57543;45.442;9.212;2023-12-14T08:38:30;8.68;87.90
70170;DHT22;57543;45.442;9.212;2023-12-14T08:41:33;8.59;88.18
70170;DHT22;57543;45.442;9.212;2023-12-14T08:44:39;8.66;88.15
70170;DHT22;57543;45.442;9.212;2023-12-14T08:47:43;8.61;88.02
70170;DHT22;57543;45.442;9.212;2023-12-14T08:50:46;8.68;87.94
70170;DHT22;57543;45.442;9.212;2023-12-14T08:53:50;8.77;87.83
70170;DHT22;57543;45.442;9.212;2023-12-14T08:56:54;8.83;87.68
70170;DHT22;57543;45.442;9.212;2023-12-14T08:59:58;8.83;87.52
70170;DHT22;57543;45.442;9.212;2023-12-14T09:03:01;8.84;87.32
70170;DHT22;57543;45.442;9.212;2023-12-14T09:06:05;8.84;87.00
70170;DHT22;57543;45.442;9.212;2023-12-14T09:09:12;8.86;87.12
70170;DHT22;57543;45.442;9.212;2023-12-14T09:12:15;8.90;87.03
70170;DHT22;57543;45.442;9.212;2023-12-14T09:15:19;8.94;86.69
70170;DHT22;57543;45.442;9.212;2023-12-14T09:18:22;8.94;86.47
70170;DHT22;57543;45.442;9.212;2023-12-14T09:21:27;8.94;86.37
70170;DHT22;57543;45.442;9.212;2023-12-14T09:24:31;8.94;86.25
70170;DHT22;57543;45.442;9.212;2023-12-14T09:27:36;8.93;86.19
70170;DHT22;57543;45.442;9.212;2023-12-14T09:30:40;8.84;86.28
70170;DHT22;57543;45.442;9.212;2023-12-14T09:33:43;8.89;86.31
70170;DHT22;57543;45.442;9.212;2023-12-14T09:36:47;8.91;86.31
70170;DHT22;57543;45.442;9.212;2023-12-14T09:39:51;8.83;86.62
70170;DHT22;57543;45.442;9.212;2023-12-14T09:42:55;8.65;87.46
70170;DHT22;57543;45.442;9.212;2023-12-14T09:46:00;8.66;87.23
70170;DHT22;57543;45.442;9.212;2023-12-14T09:49:05;8.73;87.34
70170;DHT22;57543;45.442;9.212;2023-12-14T09:52:09;8.80;86.92
70170;DHT22;57543;45.442;9.212;2023-12-14T09:55:13;8.83;86.80
70170;DHT22;57543;45.442;9.212;2023-12-14T09:58:17;8.69;86.96
70170;DHT22;57543;45.442;9.212;2023-12-14T10:01:21;8.63;87.57
70170;DHT22;57543;45.442;9.212;2023-12-14T10:04:25;8.69;87.59
70170;DHT22;57543;45.442;9.212;2023-12-14T10:07:30;8.72;87.61
70170;DHT22;57543;45.442;9.212;2023-12-14T10:10:36;8.63;87.66
70170;DHT22;57543;45.442;9.212;2023-12-14T10:13:39;8.58;87.58
70170;DHT22;57543;45.442;9.212;2023-12-14T10:16:43;8.59;87.66
70170;DHT22;57543;45.442;9.212;2023-12-14T10:19:47;8.76;87.37
70170;DHT22;57543;45.442;9.212;2023-12-14T10:22:52;8.75;87.01
70170;DHT22;57543;45.442;9.212;2023-12-14T10:25:57;8.75;86.91
70170;DHT22;57543;45.442;9.212;2023-12-14T10:29:01;8.79;86.72
70170;DHT22;57543;45.442;9.212;2023-12-14T10:32:07;8.81;86.81
70170;DHT22;57543;45.442;9.212;2023-12-14T10:35:12;8.87;86.84
70170;DHT22;57543;45.442;9.212;2023-12-14T10:38:17;8.87;86.54
70170;DHT22;57543;45.442;9.212;2023-12-14T10:41:27;8.84;87.47
70170;DHT22;57543;45.442;9.212;2023-12-14T10:44:35;9.03;87.09
70170;DHT22;57543;45.442;9.212;2023-12-14T10:47:43;9.00;86.02
70170;DHT22;57543;45.442;9.212;2023-12-14T10:50:48;9.04;85.98
70170;DHT22;57543;45.442;9.212;2023-12-14T10:53:52;9.08;86.02
70170;DHT22;57543;45.442;9.212;2023-12-14T10:56:57;9.10;86.00
70170;DHT22;57543;45.442;9.212;2023-12-14T11:00:02;9.15;85.85
70170;DHT22;57543;45.442;9.212;2023-12-14T11:03:13;9.23;85.66
70170;DHT22;57543;45.442;9.212;2023-12-14T11:06:21;9.28;85.38
70170;DHT22;57543;45.442;9.212;2023-12-14T11:09:33;9.31;84.93
70170;DHT22;57543;45.442;9.212;2023-12-14T11:12:37;9.35;84.82
70170;DHT22;57543;45.442;9.212;2023-12-14T11:15:47;9.03;84.98
70170;DHT22;57543;45.442;9.212;2023-12-14T11:22:27;9.01;85.32
70170;DHT22;57543;45.442;9.212;2023-12-14T11:25:31;8.93;85.70
70170;DHT22;57543;45.442;9.212;2023-12-14T11:28:36;8.94;86.15
70170;DHT22;57543;45.442;9.212;2023-12-14T11:31:40;8.87;86.46
70170;DHT22;57543;45.442;9.212;2023-12-14T11:34:46;8.89;86.59
70170;DHT22;57543;45.442;9.212;2023-12-14T11:37:54;8.93;86.59
70170;DHT22;57543;45.442;9.212;2023-12-14T11:41:06;8.89;86.60
70170;DHT22;57543;45.442;9.212;2023-12-14T11:44:10;9.00;86.52
70170;DHT22;57543;45.442;9.212;2023-12-14T11:47:13;8.93;86.06
70170;DHT22;57543;45.442;9.212;2023-12-14T11:50:17;8.84;86.41
70170;DHT22;57543;45.442;9.212;2023-12-14T11:53:21;8.87;86.49
70170;DHT22;57543;45.442;9.212;2023-12-14T11:56:24;8.91;86.88
70170;DHT22;57543;45.442;9.212;2023-12-14T11:59:28;8.91;86.79
70170;DHT22;57543;45.442;9.212;2023-12-14T12:02:32;8.91;86.62
70170;DHT22;57543;45.442;9.212;2023-12-14T12:05:58;9.17;86.41
70170;DHT22;57543;45.442;9.212;2023-12-14T12:09:00;9.41;85.42
70170;DHT22;57543;45.442;9.212;2023-12-14T12:12:11;9.60;84.83
70170;DHT22;57543;45.442;9.212;2023-12-14T12:15:15;9.75;83.95
70170;DHT22;57543;45.442;9.212;2023-12-14T12:18:19;9.82;82.92
70170;DHT22;57543;45.442;9.212;2023-12-14T12:21:25;9.98;82.53
70170;DHT22;57543;45.442;9.212;2023-12-14T12:24:29;10.15;81.83
70170;DHT22;57543;45.442;9.212;2023-12-14T12:27:32;10.31;81.26
70170;DHT22;57543;45.442;9.212;2023-12-14T12:30:36;10.24;81.59
70170;DHT22;57543;45.442;9.212;2023-12-14T12:33:39;10.46;81.10
70170;DHT22;57543;45.442;9.212;2023-12-14T12:36:43;10.80;80.36
70170;DHT22;57543;45.442;9.212;2023-12-14T12:39:47;11.17;78.02
70170;DHT22;57543;45.442;9.212;2023-12-14T12:42:50;11.67;77.27
70170;DHT22;57543;45.442;9.212;2023-12-14T12:45:54;11.84;76.33
70170;DHT22;57543;45.442;9.212;2023-12-14T12:48:57;12.21;76.86
70170;DHT22;57543;45.442;9.212;2023-12-14T12:52:00;12.44;74.68
70170;DHT22;57543;45.442;9.212;2023-12-14T12:55:05;12.70;73.51
70170;DHT22;57543;45.442;9.212;2023-12-14T12:58:09;13.11;74.11
70170;DHT22;57543;45.442;9.212;2023-12-14T13:01:13;13.31;72.09
70170;DHT22;57543;45.442;9.212;2023-12-14T13:04:20;13.41;70.37
70170;DHT22;57543;45.442;9.212;2023-12-14T13:07:24;13.63;70.40
70170;DHT22;57543;45.442;9.212;2023-12-14T13:10:28;13.84;69.01
70170;DHT22;57543;45.442;9.212;2023-12-14T13:13:32;13.81;67.90
70170;DHT22;57543;45.442;9.212;2023-12-14T13:16:36;14.11;69.02
70170;DHT22;57543;45.442;9.212;2023-12-14T13:19:39;14.07;67.96
70170;DHT22;57543;45.442;9.212;2023-12-14T13:22:43;13.87;67.52
70170;DHT22;57543;45.442;9.212;2023-12-14T13:25:47;14.25;68.04
70170;DHT22;57543;45.442;9.212;2023-12-14T13:28:54;14.49;67.54
70170;DHT22;57543;45.442;9.212;2023-12-14T13:32:00;14.63;67.24
70170;DHT22;57543;45.442;9.212;2023-12-14T13:35:06;14.75;66.25
70170;DHT22;57543;45.442;9.212;2023-12-14T13:38:12;14.80;65.80
70170;DHT22;57543;45.442;9.212;2023-12-14T13:41:18;14.88;65.14
70170;DHT22;57543;45.442;9.212;2023-12-14T13:44:21;14.98;64.62
70170;DHT22;57543;45.442;9.212;2023-12-14T13:47:25;14.88;64.03
70170;DHT22;57543;45.442;9.212;2023-12-14T13:50:29;14.77;65.11
70170;DHT22;57543;45.442;9.212;2023-12-14T13:53:54;14.93;64.26
70170;DHT22;57543;45.442;9.212;2023-12-14T13:56:58;14.87;62.95
70170;DHT22;57543;45.442;9.212;2023-12-14T14:00:02;14.70;63.44
70170;DHT22;57543;45.442;9.212;2023-12-14T14:03:12;14.45;64.60
70170;DHT22;57543;45.442;9.212;2023-12-14T14:06:16;14.42;65.49
70170;DHT22;57543;45.442;9.212;2023-12-14T14:09:20;14.56;63.98
70170;DHT22;57543;45.442;9.212;2023-12-14T14:12:25;14.58;64.21
70170;DHT22;57543;45.442;9.212;2023-12-14T14:15:29;14.46;64.61
70170;DHT22;57543;45.442;9.212;2023-12-14T14:18:33;14.51;64.56
70170;DHT22;57543;45.442;9.212;2023-12-14T14:21:37;14.60;64.78
70170;DHT22;57543;45.442;9.212;2023-12-14T14:24:40;14.68;63.72
70170;DHT22;57543;45.442;9.212;2023-12-14T14:27:44;14.75;64.18
70170;DHT22;57543;45.442;9.212;2023-12-14T14:30:50;14.75;64.20
70170;DHT22;57543;45.442;9.212;2023-12-14T14:33:53;14.73;63.93
70170;DHT22;57543;45.442;9.212;2023-12-14T14:36:56;14.77;63.81
70170;DHT22;57543;45.442;9.212;2023-12-14T14:40:00;14.46;64.37
70170;DHT22;57543;45.442;9.212;2023-12-14T14:43:04;14.32;64.77
70170;DHT22;57543;45.442;9.212;2023-12-14T14:46:08;14.06;65.74
70170;DHT22;57543;45.442;9.212;2023-12-14T14:49:12;13.83;66.15
70170;DHT22;57543;45.442;9.212;2023-12-14T14:52:16;13.32;67.59
70170;DHT22;57543;45.442;9.212;2023-12-14T14:55:20;13.08;67.94
70170;DHT22;57543;45.442;9.212;2023-12-14T14:58:25;12.64;68.84
70170;DHT22;57543;45.442;9.212;2023-12-14T15:01:28;12.46;70.10
70170;DHT22;57543;45.442;9.212;2023-12-14T15:04:32;11.89;71.37
70170;DHT22;57543;45.442;9.212;2023-12-14T15:07:38;11.91;72.09
70170;DHT22;57543;45.442;9.212;2023-12-14T15:10:42;11.98;71.90
70170;DHT22;57543;45.442;9.212;2023-12-14T15:13:46;11.95;72.00
70170;DHT22;57543;45.442;9.212;2023-12-14T15:16:50;11.67;72.78
70170;DHT22;57543;45.442;9.212;2023-12-14T15:19:53;11.67;73.07
70170;DHT22;57543;45.442;9.212;2023-12-14T15:22:57;11.59;73.76
70170;DHT22;57543;45.442;9.212;2023-12-14T15:26:00;11.46;73.95
70170;DHT22;57543;45.442;9.212;2023-12-14T15:29:04;11.34;74.42
70170;DHT22;57543;45.442;9.212;2023-12-14T15:32:07;11.12;75.38
70170;DHT22;57543;45.442;9.212;2023-12-14T15:35:14;10.99;76.01
70170;DHT22;57543;45.442;9.212;2023-12-14T15:38:17;10.73;77.06
70170;DHT22;57543;45.442;9.212;2023-12-14T15:41:20;10.70;77.27
70170;DHT22;57543;45.442;9.212;2023-12-14T15:44:24;10.66;77.52
70170;DHT22;57543;45.442;9.212;2023-12-14T15:47:28;10.63;77.71
70170;DHT22;57543;45.442;9.212;2023-12-14T15:50:32;10.58;77.62
70170;DHT22;57543;45.442;9.212;2023-12-14T15:53:36;10.11;79.47
70170;DHT22;57543;45.442;9.212;2023-12-14T15:56:44;10.17;79.36
70170;DHT22;57543;45.442;9.212;2023-12-14T15:59:48;10.17;79.30
70170;DHT22;57543;45.442;9.212;2023-12-14T16:02:52;10.10;79.87
70170;DHT22;57543;45.442;9.212;2023-12-14T16:05:56;10.07;79.98
70170;DHT22;57543;45.442;9.212;2023-12-14T16:09:00;10.03;79.98
70170;DHT22;57543;45.442;9.212;2023-12-14T16:12:06;9.98;80.25
70170;DHT22;57543;45.442;9.212;2023-12-14T16:15:10;9.90;80.43
70170;DHT22;57543;45.442;9.212;2023-12-14T16:18:13;9.77;81.22
70170;DHT22;57543;45.442;9.212;2023-12-14T16:21:19;9.70;81.48
70170;DHT22;57543;45.442;9.212;2023-12-14T16:24:22;9.76;81.53
70170;DHT22;57543;45.442;9.212;2023-12-14T16:27:27;9.73;81.77
70170;DHT22;57543;45.442;9.212;2023-12-14T16:30:30;9.82;81.68
70170;DHT22;57543;45.442;9.212;2023-12-14T16:33:37;9.83;81.70
70170;DHT22;57543;45.442;9.212;2023-12-14T16:36:41;9.83;81.70
70170;DHT22;57543;45.442;9.212;2023-12-14T16:39:45;9.87;81.59
70170;DHT22;57543;45.442;9.212;2023-12-14T16:42:48;9.79;81.39
70170;DHT22;57543;45.442;9.212;2023-12-14T16:45:52;9.63;81.55
70170;DHT22;57543;45.442;9.212;2023-12-14T16:48:57;9.52;81.96
70170;DHT22;57543;45.442;9.212;2023-12-14T16:52:01;9.46;82.60
70170;DHT22;57543;45.442;9.212;2023-12-14T16:55:05;9.48;82.85
70170;DHT22;57543;45.442;9.212;2023-12-14T16:58:12;9.46;82.82
70170;DHT22;57543;45.442;9.212;2023-12-14T17:01:17;9.41;82.85
70170;DHT22;57543;45.442;9.212;2023-12-14T17:04:21;9.21;83.21
70170;DHT22;57543;45.442;9.212;2023-12-14T17:07:24;9.20;83.54
70170;DHT22;57543;45.442;9.212;2023-12-14T17:10:28;9.25;83.43
70170;DHT22;57543;45.442;9.212;2023-12-14T17:13:33;9.28;83.31
70170;DHT22;57543;45.442;9.212;2023-12-14T17:16:37;9.23;83.51
70170;DHT22;57543;45.442;9.212;2023-12-14T17:19:40;9.24;83.56
70170;DHT22;57543;45.442;9.212;2023-12-14T17:22:44;9.28;83.55
70170;DHT22;57543;45.442;9.212;2023-12-14T17:25:47;9.31;83.55
70170;DHT22;57543;45.442;9.212;2023-12-14T17:28:55;9.35;83.34
70170;DHT22;57543;45.442;9.212;2023-12-14T17:31:59;9.36;83.50
70170;DHT22;57543;45.442;9.212;2023-12-14T17:35:03;9.32;83.39
70170;DHT22;57543;45.442;9.212;2023-12-14T17:38:06;9.28;83.20
70170;DHT22;57543;45.442;9.212;2023-12-14T17:41:11;9.03;83.84
70170;DHT22;57543;45.442;9.212;2023-12-14T17:44:15;9.03;83.67
70170;DHT22;57543;45.442;9.212;2023-12-14T17:47:19;9.04;83.70
70170;DHT22;57543;45.442;9.212;2023-12-14T17:50:23;9.00;83.91
70170;DHT22;57543;45.442;9.212;2023-12-14T17:53:26;9.03;84.00
70170;DHT22;57543;45.442;9.212;2023-12-14T17:56:32;8.97;84.19
70170;DHT22;57543;45.442;9.212;2023-12-14T17:59:39;8.97;84.46
70170;DHT22;57543;45.442;9.212;2023-12-14T18:02:42;9.00;84.42
70170;DHT22;57543;45.442;9.212;2023-12-14T18:05:46;8.90;84.44
70170;DHT22;57543;45.442;9.212;2023-12-14T18:08:49;8.70;85.88
70170;DHT22;57543;45.442;9.212;2023-12-14T18:11:53;8.91;85.38
70170;DHT22;57543;45.442;9.212;2023-12-14T18:14:57;9.10;84.94
70170;DHT22;57543;45.442;9.212;2023-12-14T18:18:00;9.25;84.58
70170;DHT22;57543;45.442;9.212;2023-12-14T18:21:04;9.32;84.28
70170;DHT22;57543;45.442;9.212;2023-12-14T18:24:09;9.36;84.05
70170;DHT22;57543;45.442;9.212;2023-12-14T18:27:13;9.31;83.72
70170;DHT22;57543;45.442;9.212;2023-12-14T18:30:17;9.30;83.68
70170;DHT22;57543;45.442;9.212;2023-12-14T18:33:21;9.17;83.51
70170;DHT22;57543;45.442;9.212;2023-12-14T18:36:24;9.01;84.35
70170;DHT22;57543;45.442;9.212;2023-12-14T18:39:28;8.91;84.56
70170;DHT22;57543;45.442;9.212;2023-12-14T18:42:31;8.80;84.72
70170;DHT22;57543;45.442;9.212;2023-12-14T18:45:38;8.81;84.60
70170;DHT22;57543;45.442;9.212;2023-12-14T18:48:42;8.83;84.85
70170;DHT22;57543;45.442;9.212;2023-12-14T18:51:45;8.93;84.87
70170;DHT22;57543;45.442;9.212;2023-12-14T18:54:49;8.96;84.52
70170;DHT22;57543;45.442;9.212;2023-12-14T18:57:53;8.61;84.46
70170;DHT22;57543;45.442;9.212;2023-12-14T19:00:57;8.53;84.99
70170;DHT22;57543;45.442;9.212;2023-12-14T19:04:00;8.68;84.89
70170;DHT22;57543;45.442;9.212;2023-12-14T19:07:04;8.81;84.56
70170;DHT22;57543;45.442;9.212;2023-12-14T19:10:10;8.79;84.14
70170;DHT22;57543;45.442;9.212;2023-12-14T19:13:15;8.72;84.03
70170;DHT22;57543;45.442;9.212;2023-12-14T19:16:24;8.61;84.35
70170;DHT22;57543;45.442;9.212;2023-12-14T19:19:28;8.35;85.52
70170;DHT22;57543;45.442;9.212;2023-12-14T19:22:32;8.44;85.65
70170;DHT22;57543;45.442;9.212;2023-12-14T19:25:37;8.40;85.87
70170;DHT22;57543;45.442;9.212;2023-12-14T19:28:41;8.48;85.60
70170;DHT22;57543;45.442;9.212;2023-12-14T19:31:44;8.58;85.12
70170;DHT22;57543;45.442;9.212;2023-12-14T19:34:48;8.68;85.00
70170;DHT22;57543;45.442;9.212;2023-12-14T19:37:52;8.68;84.57
70170;DHT22;57543;45.442;9.212;2023-12-14T19:40:56;8.63;84.13